Latest Coastal Weather Observations for Kalumburu

IDW60701

Issued at 1:22 am WST Thursday 27 April 2017 (issued every 10 minutes, with the page automatically refreshed every 10 minutes)

About coastal observations | Map of coastal stations | Coastal observations for WA | Marine services | Other Formats
Station Details ID: 001019 Name: KALUMBURU Lat: -14.30 Lon: 126.65 Height: 23.0 m
Data from the previous 72 hours. | See also: Recent months at Kalumburu
Date/Time
WST
Temp
°C
Wind Pressure Rain since
9am
mm
Weather Cloud Vis
km
Sea
Height
m
Swell
Dir  Spd
kts
Gust
kts
hPa Trend Height
m
Period
s
Dir
27/01:00am 22.9 CALM 0 0 1010.1 - 0.0 - - - - - - -
27/12:30am 23.1 SSW 1 4 1010.4 - 0.0 - - - - - - -
27/12:00am 23.1 CALM 0 0 1010.5 - 0.0 - - - - - - -
 
Date/Time
WST
Temp
°C
Wind Pressure Rain since
9am
mm
Weather Cloud Vis
km
Sea
Height
m
Swell
Dir  Spd
kts
Gust
kts
hPa Trend Height
m
Period
s
Dir
26/11:30pm 23.2 CALM 0 0 1010.9 - 0.0 - - - - - - -
26/11:00pm 23.4 CALM 0 0 1011.1 - 0.0 - - - - - - -
26/10:30pm 23.0 CALM 0 0 1011.3 - 0.0 - - - - - - -
26/10:00pm 23.2 CALM 0 0 1011.6 - 0.0 - - - - - - -
26/09:30pm 23.5 CALM 0 0 1011.7 - 0.0 - - - - - - -
26/09:00pm 24.1 CALM 0 0 1011.8 - 0.0 - - - - - - -
26/08:30pm 25.1 CALM 0 0 1011.5 - 0.0 - - - - - - -
26/08:00pm 24.8 CALM 0 0 1011.2 - 0.0 - - - - - - -
26/07:30pm 25.1 CALM 0 0 1010.8 - 0.0 - - - - - - -
26/07:00pm 25.0 ENE 3 4 1010.3 - 0.0 - - - - - - -
26/06:30pm 26.3 E 3 4 1009.8 - 0.0 - - - - - - -
26/06:00pm 27.7 ESE 3 4 1009.4 - 0.0 - - - - - - -
26/05:30pm 28.5 E 1 4 1009.0 - 0.0 - - - - - - -
26/05:00pm 31.6 ENE 4 5 1008.8 - 0.0 - - - - - - -
26/04:30pm 33.1 ENE 5 7 1008.5 - 0.0 - - - - - - -
26/04:00pm 33.7 ENE 5 8 1008.3 - 0.0 - - - - - - -
26/03:30pm 34.4 ENE 6 10 1007.9 - 0.0 - - - - - - -
26/03:00pm 34.5 E 9 15 1007.7 - 0.0 - - - - - - -
26/02:30pm 35.3 E 8 14 1007.9 - 0.0 - - - - - - -
26/02:00pm 35.1 ESE 9 15 1008.1 - 0.0 - - - - - - -
26/01:30pm 35.8 E 7 16 1008.4 - 0.0 - - - - - - -
26/01:00pm 34.9 E 10 16 1008.7 - 0.0 - - - - - - -
26/12:30pm 35.3 E 8 15 1008.9 - 0.0 - - - - - - -
26/12:00pm 35.3 ENE 8 17 1009.3 - 0.0 - - - - - - -
26/11:30am 35.1 E 7 11 1009.7 - 0.0 - - - - - - -
26/11:00am 34.8 E 8 15 1010.1 - 0.0 - - - - - - -
26/10:30am 34.2 SE 7 11 1010.5 - 0.0 - - - - - - -
26/10:00am 33.7 SSE 6 10 1010.7 - 0.0 - - - - - - -
26/09:30am 32.3 SSW 6 11 1010.9 - 0.0 - - - - - - -
26/09:00am 31.3 SSW 5 9 1011.4 - 0.0 - - - - - - -
26/08:30am 29.8 S 5 8 1011.6 - 0.0 - - - - - - -
26/08:00am 28.8 S 5 8 1011.7 - 0.0 - - - - - - -
26/07:30am 27.2 S 3 4 1011.8 - 0.0 - - - - - - -
26/07:00am 25.1 SSE 1 3 1011.7 - 0.0 - - - - - - -
26/06:30am 23.1 CALM 0 3 1011.3 - 0.0 - - - - - - -
26/06:00am 22.5 CALM 0 0 1010.9 - 0.0 - - - - - - -
26/05:30am 22.1 CALM 0 0 1010.4 - 0.0 - - - - - - -
26/05:00am 22.8 S 3 5 1010.2 - 0.0 - - - - - - -
26/04:30am 22.2 CALM 0 0 1010.2 - 0.0 - - - - - - -
26/04:00am 22.1 CALM 0 0 1010.1 - 0.0 - - - - - - -
26/03:30am 22.2 CALM 0 0 1010.1 - 0.0 - - - - - - -
26/03:00am 22.5 CALM 0 0 1010.1 - 0.0 - - - - - - -
26/02:30am 22.8 CALM 0 0 1010.2 - 0.0 - - - - - - -
26/02:00am 23.1 CALM 0 0 1010.3 - 0.0 - - - - - - -
26/01:30am 22.8 CALM 0 0 1010.6 - 0.0 - - - - - - -
26/01:00am 23.2 CALM 0 0 1010.9 - 0.0 - - - - - - -
26/12:30am 23.2 CALM 0 0 1011.2 - 0.0 - - - - - - -
26/12:00am 23.3 CALM 0 0 1011.5 - 0.0 - - - - - - -
 
Date/Time
WST
Temp
°C
Wind Pressure Rain since
9am
mm
Weather Cloud Vis
km
Sea
Height
m
Swell
Dir  Spd
kts
Gust
kts
hPa Trend Height
m
Period
s
Dir
25/11:30pm 23.4 SE 1 3 1011.8 - 0.0 - - - - - - -
25/11:00pm 23.9 CALM 0 0 1012.0 - 0.0 - - - - - - -
25/10:30pm 24.3 ESE 3 4 1012.1 - 0.0 - - - - - - -
25/10:00pm 24.3 SE 3 4 1012.1 - 0.0 - - - - - - -
25/09:30pm 24.4 CALM 0 1 1012.2 - 0.0 - - - - - - -
25/09:00pm 25.0 CALM 0 0 1012.5 - 0.0 - - - - - - -
25/08:30pm 25.8 CALM 0 0 1012.4 - 0.0 - - - - - - -
25/08:00pm 26.3 N 2 5 1012.1 - 0.0 - - - - - - -
25/07:30pm 27.3 CALM 0 0 1011.8 - 0.0 - - - - - - -
25/07:00pm 28.2 N 3 4 1011.2 - 0.0 - - - - - - -
25/06:30pm 28.7 N 4 6 1010.8 - 0.0 - - - - - - -
25/06:00pm 28.9 N 3 4 1010.2 - 0.0 - - - - - - -
25/05:30pm 29.8 N 5 7 1009.8 - 0.0 - - - - - - -
25/05:00pm 31.8 NE 3 5 1009.4 - 0.0 - - - - - - -
25/04:30pm 32.8 ENE 4 6 1008.9 - 0.0 - - - - - - -
25/04:00pm 33.5 NE 3 5 1008.5 - 0.0 - - - - - - -
25/03:30pm 34.4 SSE 3 5 1008.3 - 0.0 - - - - - - -
25/03:00pm 35.3 SSW 4 7 1008.1 - 0.0 - - - - - - -
25/02:30pm 34.6 SSE 5 9 1008.2 - 0.0 - - - - - - -
25/02:00pm 35.5 SW 3 7 1008.5 - 0.0 - - - - - - -
25/01:30pm 34.6 E 4 7 1008.9 - 0.0 - - - - - - -
25/01:00pm 34.6 E 5 7 1009.2 - 0.0 - - - - - - -
25/12:30pm 34.5 ESE 6 11 1009.5 - 0.0 - - - - - - -
25/12:00pm 34.6 ENE 5 8 1010.0 - 0.0 - - - - - - -
25/11:30am 34.3 W 3 6 1010.4 - 0.0 - - - - - - -
25/11:00am 33.9 SSW 2 5 1011.0 - 0.0 - - - - - - -
25/10:30am 34.1 W 3 5 1011.3 - 0.0 - - - - - - -
25/10:00am 33.5 SSE 4 6 1011.9 - 0.0 - - - - - - -
25/09:30am 32.4 SSW 4 6 1012.2 - 0.0 - - - - - - -
25/09:00am 31.1 SSW 4 6 1012.2 - 0.0 - - - - - - -
25/08:30am 30.7 S 5 7 1012.2 - 0.0 - - - - - - -
25/08:00am 29.2 S 3 4 1012.2 - 0.0 - - - - - - -
25/07:30am 28.1 CALM 0 0 1012.1 - 0.0 - - - - - - -
25/07:00am 26.4 CALM 0 0 1012.0 - 0.0 - - - - - - -
25/06:30am 24.1 CALM 0 0 1011.7 - 0.0 - - - - - - -
25/06:00am 23.2 CALM 0 0 1011.3 - 0.0 - - - - - - -
25/05:30am 23.5 CALM 0 0 1011.0 - 0.0 - - - - - - -
25/05:00am 23.1 CALM 0 0 1010.8 - 0.0 - - - - - - -
25/04:30am 23.3 CALM 0 0 1010.7 - 0.0 - - - - - - -
25/04:00am 23.5 CALM 0 0 1010.6 - 0.0 - - - - - - -
25/03:30am 23.5 CALM 0 0 1010.5 - 0.0 - - - - - - -
25/03:00am 23.5 CALM 0 0 1010.7 - 0.0 - - - - - - -
25/02:30am 23.8 CALM 0 0 1010.5 - 0.0 - - - - - - -
25/02:00am 23.9 CALM 0 0 1010.6 - 0.0 - - - - - - -
25/01:30am 23.9 CALM 0 0 1010.8 - 0.0 - - - - - - -
25/01:00am 24.2 CALM 0 0 1011.2 - 0.0 - - - - - - -
25/12:30am 24.3 CALM 0 0 1011.4 - 0.0 - - - - - - -
25/12:00am 24.4 CALM 0 0 1011.7 - 0.0 - - - - - - -
 
Date/Time
WST
Temp
°C
Wind Pressure Rain since
9am
mm
Weather Cloud Vis
km
Sea
Height
m
Swell
Dir  Spd
kts
Gust
kts
hPa Trend Height
m
Period
s
Dir
24/11:30pm 24.6 CALM 0 0 1012.0 - 0.0 - - - - - - -
24/11:00pm 24.8 ESE 2 3 1012.2 - 0.0 - - - - - - -
24/10:30pm 24.9 ESE 2 4 1012.3 - 0.0 - - - - - - -
24/10:00pm 25.0 CALM 0 0 1012.4 - 0.0 - - - - - - -
24/09:30pm 25.5 CALM 0 0 1012.6 - 0.0 - - - - - - -
24/09:00pm 25.7 CALM 0 0 1012.6 - 0.0 - - - - - - -
24/08:30pm 26.0 CALM 0 0 1012.7 - 0.0 - - - - - - -
24/08:00pm 26.5 CALM 0 0 1012.7 - 0.0 - - - - - - -
24/07:30pm 27.2 N 3 4 1012.3 - 0.0 - - - - - - -
24/07:00pm 27.9 N 3 5 1011.8 - 0.0 - - - - - - -
24/06:30pm 28.7 N 4 5 1011.3 - 0.0 - - - - - - -
24/06:00pm 29.2 N 4 6 1010.9 - 0.0 - - - - - - -
24/05:30pm 30.0 N 6 8 1010.4 - 0.0 - - - - - - -
24/05:00pm 30.9 N 7 11 1009.9 - 0.0 - - - - - - -
24/04:30pm 31.8 N 8 12 1009.3 - 0.0 - - - - - - -
24/04:00pm 33.3 N 7 14 1008.9 - 0.0 - - - - - - -
24/03:30pm 35.0 NE 5 9 1008.6 - 0.0 - - - - - - -
24/03:00pm 35.2 NE 6 9 1008.4 - 0.0 - - - - - - -
24/02:30pm 35.3 ENE 6 11 1008.5 - 0.0 - - - - - - -
24/02:00pm 34.1 SE 6 10 1008.7 - 0.0 - - - - - - -
24/01:30pm 34.5 ESE 5 7 1009.0 - 0.0 - - - - - - -
24/01:00pm 35.0 SE 5 9 1009.4 - 0.0 - - - - - - -
24/12:30pm 34.7 E 5 9 1009.7 - 0.0 - - - - - - -
24/12:00pm 33.8 SSE 6 10 1010.3 - 0.0 - - - - - - -
24/11:30am 32.9 S 3 5 1011.0 - 0.0 - - - - - - -
24/11:00am 33.6 WSW 4 6 1011.6 - 0.0 - - - - - - -
24/10:30am 33.1 SSW 4 6 1012.1 - 0.0 - - - - - - -
24/10:00am 32.6 S 4 7 1012.6 - 0.0 - - - - - - -
24/09:30am 31.5 SW 4 6 1013.0 - 0.0 - - - - - - -
24/09:00am 30.8 SSW 4 6 1013.2 - 0.0 - - - - - - -
24/08:30am 30.2 S 4 7 1013.2 - 0.0 - - - - - - -
24/08:00am 28.8 SSE 5 8 1013.1 - 0.0 - - - - - - -
24/07:30am 27.9 S 4 7 1013.1 - 0.0 - - - - - - -
24/07:00am 26.5 S 3 5 1013.0 - 0.0 - - - - - - -
24/06:30am 25.1 CALM 0 3 1012.6 - 0.0 - - - - - - -
24/06:00am 23.5 CALM 0 2 1012.2 - 0.0 - - - - - - -
24/05:30am 23.5 CALM 0 0 1011.9 - 0.0 - - - - - - -
24/05:00am 23.6 SSE 1 4 1011.6 - 0.0 - - - - - - -
24/04:30am 24.2 SSE 3 5 1011.4 - 0.0 - - - - - - -
24/04:00am 23.4 S 1 5 1011.2 - 0.0 - - - - - - -
24/03:30am 23.9 SSW 1 4 1010.9 - 0.0 - - - - - - -
24/03:00am 23.7 CALM 0 0 1010.8 - 0.0 - - - - - - -
24/02:30am 23.5 CALM 0 0 1010.6 - 0.0 - - - - - - -
24/02:00am 23.6 CALM 0 0 1010.7 - 0.0 - - - - - - -
24/01:30am 23.9 CALM 0 0 1011.1 - 0.0 - - - - - - -

Other Formats:

Comma delimited format used in spreadsheet applications
http://www.bom.gov.au/fwo/IDW60701/IDW60701.94100.axf

JavaScript Object Notation format (JSON) in row-major order
http://www.bom.gov.au/fwo/IDW60701/IDW60701.94100.json